createdAt,value
2022-11-30T00:00:43.324Z,102593.84
2022-11-30T00:03:11.130Z,102584.88
2022-11-30T00:05:38.754Z,102582.38
2022-11-30T00:08:06.881Z,102575.34
2022-11-30T00:10:35.002Z,102570.69
2022-11-30T00:13:02.677Z,102564.41
2022-11-30T00:15:36.505Z,102567.91
2022-11-30T00:18:04.278Z,102572.44
2022-11-30T00:20:32.191Z,102576.84
2022-11-30T00:23:00.427Z,102567.97
2022-11-30T00:25:28.135Z,102552.72
2022-11-30T00:27:55.735Z,102575.00
2022-11-30T00:30:23.433Z,102577.84
2022-11-30T00:32:51.104Z,102576.25
2022-11-30T00:35:18.679Z,102568.16
2022-11-30T00:37:46.307Z,102563.72
2022-11-30T00:40:14.354Z,102569.41
2022-11-30T00:42:42.254Z,102566.44
2022-11-30T00:45:10.355Z,102567.53
2022-11-30T00:47:39.776Z,102569.31
2022-11-30T00:50:08.093Z,102572.88
2022-11-30T00:52:35.930Z,102569.28
2022-11-30T00:55:04.440Z,102569.41
2022-11-30T00:57:33.044Z,102566.50
2022-11-30T01:00:00.651Z,102561.16
2022-11-30T01:02:28.702Z,102557.78
2022-11-30T01:04:56.253Z,102571.19
2022-11-30T01:07:24.132Z,102565.75
2022-11-30T01:09:51.811Z,102559.53
2022-11-30T01:12:19.439Z,102556.78
2022-11-30T01:14:47.131Z,102559.59
2022-11-30T01:17:14.930Z,102556.94
2022-11-30T01:19:42.439Z,102571.97
2022-11-30T01:22:10.162Z,102557.03
2022-11-30T01:24:37.793Z,102554.28
2022-11-30T01:27:05.331Z,102566.63
2022-11-30T01:29:32.942Z,102575.63
2022-11-30T01:32:01.360Z,102578.31
2022-11-30T01:34:29.104Z,102581.94
2022-11-30T01:36:56.789Z,102576.72
2022-11-30T01:39:24.463Z,102580.81
2022-11-30T01:41:53.781Z,102580.78
2022-11-30T01:44:26.726Z,102577.13
2022-11-30T01:47:00.170Z,102583.63
2022-11-30T01:49:31.769Z,102578.13
2022-11-30T01:52:17.058Z,102569.94
2022-11-30T01:54:54.758Z,102575.16
2022-11-30T01:57:27.578Z,102569.84
2022-11-30T01:59:55.477Z,102565.47
2022-11-30T02:02:53.159Z,102573.69
2022-11-30T02:05:22.601Z,102559.41
2022-11-30T02:07:50.359Z,102572.78
2022-11-30T02:10:19.933Z,102561.00
2022-11-30T02:12:59.633Z,102569.13
2022-11-30T02:15:28.479Z,102564.97
2022-11-30T02:18:09.909Z,102561.16
2022-11-30T02:21:04.497Z,102562.25
2022-11-30T02:23:49.610Z,102564.88
2022-11-30T02:26:33.867Z,102574.78
2022-11-30T02:29:06.521Z,102574.56
2022-11-30T02:31:42.737Z,102568.31
2022-11-30T02:34:10.967Z,102581.66
2022-11-30T02:36:38.568Z,102571.78
2022-11-30T02:39:06.714Z,102576.16
2022-11-30T02:41:39.123Z,102569.13
2022-11-30T02:44:07.440Z,102572.78
2022-11-30T02:47:01.161Z,102582.22
2022-11-30T02:49:37.643Z,102590.13
2022-11-30T02:52:05.526Z,102582.47
2022-11-30T02:54:34.043Z,102575.19
2022-11-30T02:57:02.016Z,102570.84
2022-11-30T02:59:29.680Z,102570.91
2022-11-30T03:01:57.764Z,102567.97
2022-11-30T03:04:44.222Z,102579.84
2022-11-30T03:07:12.064Z,102570.00
2022-11-30T03:09:39.819Z,102573.59
2022-11-30T03:12:07.480Z,102575.09
2022-11-30T03:14:35.061Z,102580.53
2022-11-30T03:17:02.619Z,102577.88
2022-11-30T03:19:30.609Z,102572.69
2022-11-30T03:21:58.288Z,102561.16
2022-11-30T03:24:26.001Z,102562.91
2022-11-30T03:26:53.535Z,102565.69
2022-11-30T03:29:22.318Z,102558.53
2022-11-30T03:31:49.897Z,102554.28
2022-11-30T03:34:17.501Z,102564.09
2022-11-30T03:36:45.040Z,102571.28
2022-11-30T03:39:12.748Z,102562.19
2022-11-30T03:41:40.436Z,102560.41
2022-11-30T03:44:07.973Z,102570.00
2022-11-30T03:46:35.748Z,102562.13
2022-11-30T03:49:04.356Z,102557.47
2022-11-30T03:51:32.662Z,102557.34
2022-11-30T03:54:00.243Z,102564.75
2022-11-30T03:56:28.960Z,102577.13
2022-11-30T03:58:56.534Z,102576.84
2022-11-30T04:01:24.940Z,102569.75
2022-11-30T04:03:52.831Z,102566.16
2022-11-30T04:06:22.347Z,102555.59
2022-11-30T04:08:50.431Z,102574.34
2022-11-30T04:11:18.776Z,102571.44
2022-11-30T04:13:46.374Z,102578.72
2022-11-30T04:16:14.013Z,102574.06
2022-11-30T04:18:41.590Z,102578.53
2022-11-30T04:21:10.012Z,102578.47
2022-11-30T04:23:39.012Z,102570.53
2022-11-30T04:26:10.068Z,102562.41
2022-11-30T04:28:38.865Z,102557.09
2022-11-30T04:31:06.709Z,102560.72
2022-11-30T04:33:34.466Z,102548.47
2022-11-30T04:36:05.316Z,102564.41
2022-11-30T04:38:33.143Z,102553.84
2022-11-30T04:41:00.825Z,102569.66
2022-11-30T04:43:28.922Z,102562.00
2022-11-30T04:45:56.642Z,102555.13
2022-11-30T04:48:24.523Z,102540.88
2022-11-30T04:50:52.312Z,102546.22
2022-11-30T04:53:19.914Z,102545.34
2022-11-30T04:55:47.447Z,102548.88
2022-11-30T04:58:15.413Z,102556.78
2022-11-30T05:00:42.967Z,102559.50
2022-11-30T05:03:10.660Z,102548.69
2022-11-30T05:05:40.682Z,102550.56
2022-11-30T05:08:09.479Z,102561.94
2022-11-30T05:10:37.012Z,102562.22
2022-11-30T05:13:04.646Z,102562.75
2022-11-30T05:15:33.060Z,102553.88
2022-11-30T05:18:01.443Z,102551.97
2022-11-30T05:20:29.201Z,102553.66
2022-11-30T05:22:56.742Z,102550.91
2022-11-30T05:25:24.596Z,102555.03
2022-11-30T05:27:52.272Z,102553.06
2022-11-30T05:30:20.018Z,102546.66
2022-11-30T05:32:50.130Z,102549.28
2022-11-30T05:35:17.821Z,102562.47
2022-11-30T05:37:46.823Z,102554.16
2022-11-30T05:40:15.022Z,102566.84
2022-11-30T05:42:42.596Z,102574.88
2022-11-30T05:45:10.834Z,102568.31
2022-11-30T05:47:39.097Z,102596.44
2022-11-30T05:50:09.524Z,102597.19
2022-11-30T05:52:39.366Z,102594.69
2022-11-30T05:55:07.181Z,102596.13
2022-11-30T05:57:38.962Z,102608.69
2022-11-30T06:00:08.695Z,102599.69
2022-11-30T06:02:42.347Z,102609.31
2022-11-30T06:05:10.207Z,102589.59
2022-11-30T06:41:20.090Z,102590.94
2022-11-30T06:43:48.979Z,102593.09
2022-11-30T06:46:16.752Z,102597.13
2022-11-30T06:48:51.017Z,102597.69
2022-11-30T06:51:20.760Z,102592.31
2022-11-30T06:53:48.433Z,102600.16
2022-11-30T06:56:16.224Z,102609.00
2022-11-30T06:58:44.421Z,102603.66
2022-11-30T07:01:14.758Z,102598.03
2022-11-30T07:03:42.500Z,102604.13
2022-11-30T07:06:14.781Z,102603.84
2022-11-30T07:08:44.576Z,102588.06
2022-11-30T07:11:12.357Z,102610.06
2022-11-30T07:13:40.186Z,102609.72
2022-11-30T07:16:09.158Z,102605.81
2022-11-30T07:18:37.029Z,102593.56
2022-11-30T07:21:05.503Z,102589.34
2022-11-30T07:23:56.189Z,102614.41
2022-11-30T07:26:24.731Z,102614.25
2022-11-30T07:28:55.466Z,102608.75
2022-11-30T07:31:24.200Z,102607.19
2022-11-30T07:33:52.675Z,102604.50
2022-11-30T07:36:23.114Z,102599.28
2022-11-30T07:38:51.610Z,102605.66
2022-11-30T07:41:19.419Z,102602.56
2022-11-30T07:43:47.077Z,102590.03
2022-11-30T07:46:15.451Z,102610.19
2022-11-30T07:48:43.519Z,102611.06
2022-11-30T07:51:19.891Z,102620.88
2022-11-30T07:53:47.945Z,102610.91
2022-11-30T07:56:19.567Z,102607.63
2022-11-30T07:58:48.071Z,102619.50
2022-11-30T08:01:17.697Z,102613.66
2022-11-30T08:03:45.647Z,102612.63
2022-11-30T08:06:20.354Z,102596.28
2022-11-30T08:08:49.039Z,102590.41
2022-11-30T08:11:18.750Z,102593.63
2022-11-30T08:13:46.359Z,102591.28
2022-11-30T08:16:17.025Z,102587.47
2022-11-30T08:18:44.728Z,102580.31
2022-11-30T08:21:13.599Z,102591.56
2022-11-30T08:23:42.729Z,102595.16
2022-11-30T08:26:12.034Z,102586.75
2022-11-30T08:28:40.461Z,102592.19
2022-11-30T08:31:10.536Z,102585.25
2022-11-30T08:33:38.266Z,102586.47
2022-11-30T08:36:17.027Z,102574.00
2022-11-30T08:38:45.226Z,102576.16
2022-11-30T08:41:16.126Z,102575.06
2022-11-30T08:43:44.378Z,102566.47
2022-11-30T08:46:42.469Z,102564.53
2022-11-30T08:49:20.253Z,102576.28
2022-11-30T08:54:39.571Z,102566.53
2022-11-30T08:57:07.114Z,102573.25
2022-11-30T08:59:35.125Z,102575.50
2022-11-30T09:02:02.866Z,102574.38
2022-11-30T09:04:30.556Z,102574.84
2022-11-30T09:06:59.411Z,102570.81
2022-11-30T09:09:27.229Z,102579.13
2022-11-30T09:11:55.885Z,102581.81
2022-11-30T09:14:23.829Z,102573.13
2022-11-30T09:16:52.044Z,102565.91
2022-11-30T09:19:20.136Z,102574.56
2022-11-30T09:21:51.921Z,102577.56
2022-11-30T09:24:21.023Z,102568.56
2022-11-30T09:26:48.725Z,102569.00
2022-11-30T09:29:16.420Z,102565.91
2022-11-30T09:32:34.013Z,102571.88
2022-11-30T09:35:01.659Z,102563.69
2022-11-30T09:37:29.528Z,102574.91
2022-11-30T09:39:57.371Z,102550.94
2022-11-30T09:42:45.029Z,102551.09
2022-11-30T09:45:31.873Z,102551.28
2022-11-30T09:48:23.778Z,102555.88
2022-11-30T09:50:51.677Z,102548.06
2022-11-30T09:53:29.781Z,102543.81
2022-11-30T09:55:57.608Z,102539.22
2022-11-30T09:58:36.554Z,102529.91
2022-11-30T10:01:07.344Z,102545.28
2022-11-30T10:03:35.292Z,102546.66
2022-11-30T10:06:09.352Z,102537.81
2022-11-30T10:08:52.274Z,102530.81
2022-11-30T10:11:41.257Z,102545.66
2022-11-30T10:14:30.101Z,102540.13
2022-11-30T10:17:22.499Z,102540.41
2022-11-30T10:19:59.277Z,102548.13
2022-11-30T10:22:32.062Z,102529.47
2022-11-30T10:25:17.869Z,102540.16
2022-11-30T10:27:55.636Z,102534.06
2022-11-30T10:30:34.241Z,102532.31
2022-11-30T10:33:18.881Z,102534.34
2022-11-30T10:36:03.366Z,102540.94
2022-11-30T10:38:34.868Z,102535.13
2022-11-30T10:41:12.442Z,102540.16
2022-11-30T10:43:45.731Z,102531.09
2022-11-30T10:46:39.535Z,102529.56
2022-11-30T10:49:13.946Z,102522.81
2022-11-30T10:52:01.046Z,102526.25
2022-11-30T10:54:37.558Z,102531.38
2022-11-30T10:57:05.739Z,102528.69
2022-11-30T10:59:50.116Z,102522.88
2022-11-30T11:02:33.341Z,102521.75
2022-11-30T11:05:31.078Z,102526.88
2022-11-30T11:08:19.149Z,102514.28
2022-11-30T11:10:49.918Z,102525.06
2022-11-30T11:13:35.678Z,102519.31
2022-11-30T11:16:04.130Z,102519.13
2022-11-30T11:18:33.062Z,102520.00
2022-11-30T11:21:10.145Z,102523.13
2022-11-30T11:23:38.656Z,102524.09
2022-11-30T11:26:35.723Z,102527.75
2022-11-30T11:29:03.749Z,102523.47
2022-11-30T11:31:46.849Z,102528.41
2022-11-30T11:34:24.878Z,102536.00
2022-11-30T11:37:28.845Z,102538.25
2022-11-30T11:40:03.699Z,102541.28
2022-11-30T11:42:34.635Z,102534.34
2022-11-30T11:45:02.735Z,102537.47
2022-11-30T11:47:41.556Z,102537.09
2022-11-30T11:50:12.676Z,102525.81
2022-11-30T11:52:40.630Z,102537.09
2022-11-30T11:55:34.576Z,102523.13
2022-11-30T11:58:02.596Z,102534.78
2022-11-30T12:00:30.430Z,102520.94
2022-11-30T12:03:08.977Z,102533.75
2022-11-30T12:05:47.467Z,102528.19
2022-11-30T12:08:29.087Z,102534.25
2022-11-30T12:11:20.475Z,102531.50
2022-11-30T12:13:48.132Z,102526.78
2022-11-30T12:16:26.211Z,102526.59
2022-11-30T12:19:15.809Z,102518.63
2022-11-30T12:21:58.409Z,102521.72
2022-11-30T12:24:34.696Z,102524.50
2022-11-30T12:27:23.141Z,102527.22
2022-11-30T12:29:56.852Z,102526.06
2022-11-30T12:32:30.764Z,102522.44
2022-11-30T12:35:17.492Z,102516.34
2022-11-30T12:37:57.468Z,102521.56
2022-11-30T12:40:39.054Z,102531.09
2022-11-30T12:43:12.875Z,102532.03
2022-11-30T12:45:42.747Z,102533.69
2022-11-30T12:48:22.899Z,102532.84
2022-11-30T12:51:32.364Z,102540.84
2022-11-30T12:53:59.980Z,102546.03
2022-11-30T12:56:49.235Z,102538.03
2022-11-30T12:59:43.452Z,102535.63
2022-11-30T13:02:32.861Z,102536.22
2022-11-30T13:05:12.719Z,102538.16
2022-11-30T13:07:44.138Z,102543.63
2022-11-30T13:10:12.478Z,102538.41
2022-11-30T13:12:43.932Z,102541.97
2022-11-30T13:15:28.486Z,102551.28
2022-11-30T13:17:56.088Z,102550.56
2022-11-30T13:20:42.875Z,102544.34
2022-11-30T13:23:12.816Z,102546.66
2022-11-30T13:26:07.756Z,102547.97
2022-11-30T13:28:36.191Z,102546.06
2022-11-30T13:31:24.022Z,102549.78
2022-11-30T13:33:54.719Z,102549.53
2022-11-30T13:36:27.857Z,102554.28
2022-11-30T13:39:13.882Z,102550.75
2022-11-30T13:41:42.050Z,102546.75
2022-11-30T13:44:32.408Z,102548.06
2022-11-30T13:47:01.655Z,102545.53
2022-11-30T13:49:36.326Z,102542.84
2022-11-30T13:54:57.483Z,102533.13
2022-11-30T13:57:25.042Z,102533.13
2022-11-30T13:59:56.687Z,102532.50
2022-11-30T14:02:33.332Z,102533.19
2022-11-30T14:05:19.046Z,102539.00
2022-11-30T14:08:07.625Z,102541.69
2022-11-30T14:10:35.318Z,102539.97
2022-11-30T14:13:29.473Z,102529.19
2022-11-30T14:16:00.648Z,102528.50
2022-11-30T14:18:38.632Z,102517.13
2022-11-30T14:21:28.926Z,102530.72
2022-11-30T14:24:07.963Z,102539.78
2022-11-30T14:26:37.559Z,102533.41
2022-11-30T14:29:08.505Z,102532.75
2022-11-30T14:32:03.368Z,102544.59
2022-11-30T14:34:39.141Z,102544.78
2022-11-30T14:37:15.205Z,102547.47
2022-11-30T14:39:45.774Z,102545.47
2022-11-30T14:42:23.336Z,102551.88
2022-11-30T14:44:51.120Z,102554.94
2022-11-30T14:47:25.895Z,102554.69
2022-11-30T14:49:55.274Z,102556.75
2022-11-30T14:52:56.527Z,102559.78
2022-11-30T14:55:24.224Z,102569.69
2022-11-30T14:57:59.477Z,102555.28
2022-11-30T15:00:30.498Z,102565.06
2022-11-30T15:02:58.038Z,102559.00
2022-11-30T15:05:28.301Z,102566.31
2022-11-30T15:07:56.133Z,102560.84
2022-11-30T15:10:29.922Z,102564.56
2022-11-30T15:12:58.763Z,102553.09
2022-11-30T15:15:27.967Z,102559.19
2022-11-30T15:18:16.465Z,102563.94
2022-11-30T15:20:45.037Z,102566.00
2022-11-30T15:23:13.588Z,102557.00
2022-11-30T15:25:51.237Z,102560.78
2022-11-30T15:28:25.359Z,102564.19
2022-11-30T15:30:55.023Z,102568.16
2022-11-30T15:33:23.661Z,102565.06
2022-11-30T15:38:43.269Z,102570.59
2022-11-30T15:41:17.854Z,102556.19
2022-11-30T15:43:51.946Z,102564.88
2022-11-30T15:46:39.768Z,102556.75
2022-11-30T15:49:24.877Z,102570.88
2022-11-30T15:52:09.280Z,102565.59
2022-11-30T15:54:56.045Z,102569.56
2022-11-30T15:57:24.651Z,102558.97
2022-11-30T16:00:14.008Z,102559.38
2022-11-30T16:02:41.984Z,102556.91
2022-11-30T16:05:14.734Z,102551.94
2022-11-30T16:07:57.487Z,102555.41
2022-11-30T16:10:26.819Z,102560.00
2022-11-30T16:12:54.900Z,102562.47
2022-11-30T16:15:27.601Z,102562.84
2022-11-30T16:18:07.774Z,102563.81
2022-11-30T16:20:35.476Z,102561.19
2022-11-30T16:23:05.983Z,102553.22
2022-11-30T16:25:33.973Z,102553.28
2022-11-30T16:28:02.841Z,102560.31
2022-11-30T16:30:30.762Z,102564.03
2022-11-30T16:32:58.360Z,102554.94
2022-11-30T16:36:17.349Z,102559.28
2022-11-30T16:38:48.658Z,102568.72
2022-11-30T16:41:21.107Z,102570.38
2022-11-30T16:43:50.997Z,102565.16
2022-11-30T16:46:23.187Z,102576.06
2022-11-30T16:48:51.014Z,102571.41
2022-11-30T16:51:24.097Z,102569.66
2022-11-30T16:53:51.903Z,102572.44
2022-11-30T16:56:19.661Z,102574.41
2022-11-30T16:58:47.591Z,102577.25
2022-11-30T17:01:21.816Z,102580.66
2022-11-30T17:03:50.447Z,102573.78
2022-11-30T17:06:22.137Z,102583.59
2022-11-30T17:08:51.289Z,102572.06
2022-11-30T17:11:29.617Z,102571.97
2022-11-30T17:13:57.367Z,102568.81
2022-11-30T17:16:25.045Z,102568.56
2022-11-30T17:18:52.741Z,102566.38
2022-11-30T17:21:23.883Z,102578.22
2022-11-30T17:23:51.528Z,102567.63
2022-11-30T19:19:21.770Z,102652.75
2022-11-30T19:21:49.600Z,102651.84
2022-11-30T19:24:17.271Z,102658.97
2022-11-30T19:26:45.242Z,102657.22
2022-11-30T19:29:12.910Z,102653.38
2022-11-30T19:31:40.709Z,102657.09
2022-11-30T19:34:12.506Z,102664.34
2022-11-30T19:36:40.986Z,102659.13
2022-11-30T19:39:09.867Z,102668.72
2022-11-30T19:41:37.518Z,102674.13
2022-11-30T19:44:05.268Z,102675.50
2022-11-30T19:46:34.806Z,102678.56
2022-11-30T19:49:02.702Z,102679.38
2022-11-30T19:51:30.767Z,102679.91
2022-11-30T19:54:01.141Z,102679.91
2022-11-30T19:56:30.039Z,102690.09
2022-11-30T19:59:04.167Z,102687.53
2022-11-30T20:01:33.312Z,102686.53
2022-11-30T20:04:01.107Z,102688.66
2022-11-30T20:06:30.466Z,102683.41
2022-11-30T20:08:58.281Z,102683.47
2022-11-30T20:11:26.584Z,102685.59
2022-11-30T20:13:54.227Z,102682.13
2022-11-30T20:16:24.307Z,102683.38
2022-11-30T20:19:00.980Z,102676.63
2022-11-30T20:21:30.863Z,102680.69
2022-11-30T20:24:00.153Z,102684.75
2022-11-30T20:26:30.321Z,102689.16
2022-11-30T20:28:59.118Z,102681.44
2022-11-30T20:31:28.010Z,102682.25
2022-11-30T20:33:55.615Z,102685.81
2022-11-30T20:36:23.235Z,102686.13
2022-11-30T20:38:50.788Z,102687.16
2022-11-30T20:41:20.629Z,102693.38
2022-11-30T20:43:48.231Z,102691.88
2022-11-30T20:46:17.445Z,102687.50
2022-11-30T20:48:45.185Z,102690.47
2022-11-30T20:51:30.166Z,102689.53
2022-11-30T20:54:03.883Z,102698.53
2022-11-30T20:56:31.923Z,102697.94
2022-11-30T20:59:03.181Z,102710.41
2022-11-30T21:01:30.876Z,102702.56
2022-11-30T21:04:00.926Z,102714.22
2022-11-30T21:06:29.630Z,102724.91
2022-11-30T21:08:57.576Z,102714.22
2022-11-30T21:11:25.477Z,102715.06
2022-11-30T21:13:53.519Z,102711.53
2022-11-30T21:16:27.211Z,102713.56
2022-11-30T21:18:56.304Z,102693.94
2022-11-30T21:21:24.801Z,102694.78
2022-11-30T21:23:52.545Z,102701.03
2022-11-30T21:26:33.322Z,102699.31
2022-11-30T21:29:03.514Z,102699.22
2022-11-30T21:31:56.635Z,102695.53
2022-11-30T21:34:25.471Z,102695.44
2022-11-30T21:36:53.126Z,102691.56
2022-11-30T21:39:21.245Z,102692.41
2022-11-30T21:41:48.840Z,102695.19
2022-11-30T21:44:16.919Z,102698.78
2022-11-30T21:46:45.839Z,102694.97
2022-11-30T21:49:14.462Z,102704.97
2022-11-30T21:51:44.207Z,102702.13
2022-11-30T21:54:12.353Z,102696.75
2022-11-30T21:56:40.891Z,102690.47
2022-11-30T21:59:08.893Z,102695.75
2022-11-30T22:01:41.776Z,102701.84
2022-11-30T22:04:10.263Z,102696.09
2022-11-30T22:06:38.516Z,102709.53
2022-11-30T22:09:08.173Z,102702.31
2022-11-30T22:11:39.066Z,102701.34
2022-11-30T22:14:07.493Z,102710.25
2022-11-30T22:16:36.496Z,102706.03
2022-11-30T22:19:05.593Z,102707.94
2022-11-30T22:21:33.241Z,102701.47
2022-11-30T22:24:05.521Z,102703.44
2022-11-30T22:26:43.589Z,102713.38
2022-11-30T22:29:19.375Z,102713.22
2022-11-30T22:31:48.805Z,102713.16
2022-11-30T22:34:18.221Z,102711.63
2022-11-30T22:36:46.055Z,102706.34
2022-11-30T22:39:19.466Z,102714.31
2022-11-30T22:41:54.273Z,102712.56
2022-11-30T22:44:22.675Z,102714.22
2022-11-30T22:46:50.380Z,102724.16
2022-11-30T22:49:21.284Z,102727.63
2022-11-30T22:51:49.563Z,102718.25
2022-11-30T22:54:17.303Z,102723.25
2022-11-30T22:56:46.689Z,102714.41
